Time;durP1;ratioP1;P1;durP2;ratioP2;P2;SDS_P1;SDS_P2;PMS_P1;PMS_P2;Temp;Humidity;BMP_temperature;BMP_pressure;BME280_temperature;BME280_humidity;BME280_pressure;Samples;Min_cycle;Max_cycle;Signal;HPM_P1;HPM_P2
2021/07/06 00:01:50;;;;;;;29.80;15.55;;;16.40;92.10;;;;;;4950988;29;20249;-88
2021/07/06 00:04:16;;;;;;;25.83;15.85;;;16.50;92.10;;;;;;4952180;28;20180;-88
2021/07/06 00:06:41;;;;;;;33.38;14.63;;;16.40;92.20;;;;;;4952193;28;20262;-88
2021/07/06 00:09:07;;;;;;;26.65;14.50;;;16.40;92.20;;;;;;4952045;29;20233;-88
2021/07/06 00:11:33;;;;;;;27.60;14.23;;;16.50;92.20;;;;;;4951092;28;20605;-87
2021/07/06 00:13:58;;;;;;;25.25;13.73;;;16.40;92.30;;;;;;4955730;28;20565;-88
2021/07/06 00:16:24;;;;;;;20.98;14.55;;;16.40;92.30;;;;;;4955410;28;20709;-88
2021/07/06 00:18:50;;;;;;;27.73;13.75;;;16.40;92.30;;;;;;4954117;28;20756;-88
2021/07/06 00:21:15;;;;;;;21.88;13.18;;;16.40;92.30;;;;;;4954173;29;20210;-89
2021/07/06 00:23:42;;;;;;;20.10;13.48;;;16.40;92.20;;;;;;4954155;28;20190;-89
2021/07/06 00:26:07;;;;;;;22.45;13.38;;;16.40;92.30;;;;;;4954312;29;20675;-89
2021/07/06 00:28:34;;;;;;;19.40;13.63;;;16.40;92.30;;;;;;4955201;28;20225;-88
2021/07/06 00:31:00;;;;;;;22.55;14.23;;;16.40;92.30;;;;;;4954043;28;20179;-88
2021/07/06 00:33:29;;;;;;;20.30;13.45;;;16.30;92.30;;;;;;4955287;28;20199;-88
2021/07/06 00:35:59;;;;;;;24.80;12.93;;;16.30;92.40;;;;;;4953940;29;20191;-88
2021/07/06 00:38:25;;;;;;;21.98;13.23;;;16.30;92.40;;;;;;4954992;28;20225;-88
2021/07/06 00:40:53;;;;;;;20.67;13.50;;;16.30;92.40;;;;;;4954438;28;20224;-88
2021/07/06 00:43:19;;;;;;;29.30;14.50;;;16.40;92.40;;;;;;4953870;29;20191;-88
2021/07/06 00:45:44;;;;;;;20.92;12.75;;;16.40;92.40;;;;;;4953770;28;20370;-88
2021/07/06 00:48:10;;;;;;;32.35;12.85;;;16.40;92.40;;;;;;4953633;28;20214;-88
2021/07/06 00:50:36;;;;;;;29.35;13.55;;;16.40;92.40;;;;;;4954895;28;20600;-88
2021/07/06 00:53:01;;;;;;;27.75;11.75;;;16.40;92.40;;;;;;4953667;29;20750;-88
2021/07/06 00:55:29;;;;;;;23.98;12.43;;;16.40;92.40;;;;;;4954954;28;20183;-88
2021/07/06 00:57:55;;;;;;;21.15;11.98;;;16.40;92.40;;;;;;4954876;28;20179;-88
2021/07/06 01:00:23;;;;;;;20.35;11.95;;;16.40;92.40;;;;;;4953568;28;20207;-88
2021/07/06 01:02:50;;;;;;;36.00;13.13;;;16.40;92.50;;;;;;4953498;28;20183;-88
2021/07/06 01:05:18;;;;;;;19.65;12.20;;;16.40;92.50;;;;;;4954740;28;20168;-88
2021/07/06 01:07:43;;;;;;;24.70;12.05;;;16.40;92.50;;;;;;4954764;28;20183;-88
2021/07/06 01:10:10;;;;;;;15.30;11.20;;;16.40;92.50;;;;;;4953397;29;20568;-88
2021/07/06 01:12:36;;;;;;;19.48;10.73;;;16.40;92.40;;;;;;4954561;28;20536;-88
2021/07/06 01:15:06;;;;;;;17.10;10.23;;;16.40;92.40;;;;;;4953271;28;20600;-88
2021/07/06 01:17:32;;;;;;;24.73;10.38;;;16.50;92.40;;;;;;4953493;29;20666;-88
2021/07/06 01:20:00;;;;;;;15.93;8.57;;;16.50;92.40;;;;;;4954542;28;20207;-88
2021/07/06 01:22:27;;;;;;;24.60;10.25;;;16.60;92.30;;;;;;4969350;28;20187;-88
2021/07/06 01:24:53;;;;;;;19.35;10.73;;;16.60;92.30;;;;;;4954409;28;20180;-88
2021/07/06 01:27:19;;;;;;;27.95;9.50;;;16.60;92.20;;;;;;4953085;29;20797;-88
2021/07/06 01:29:45;;;;;;;16.27;9.13;;;16.60;92.30;;;;;;4954238;28;20286;-88
2021/07/06 01:32:11;;;;;;;17.63;8.40;;;16.60;92.30;;;;;;4954294;28;20258;-88
2021/07/06 01:34:36;;;;;;;12.35;8.27;;;16.60;92.30;;;;;;4953041;28;20341;-88
2021/07/06 01:37:02;;;;;;;11.27;7.07;;;16.60;92.30;;;;;;4954512;28;20206;-88
2021/07/06 01:39:29;;;;;;;14.60;7.40;;;16.70;92.10;;;;;;4969046;28;20213;-88
2021/07/06 01:41:55;;;;;;;19.42;7.45;;;16.70;92.10;;;;;;4954192;28;20168;-88
2021/07/06 01:44:23;;;;;;;20.38;7.20;;;16.60;92.10;;;;;;4953147;28;20191;-88
2021/07/06 01:46:49;;;;;;;13.43;7.32;;;16.60;92.10;;;;;;4954292;28;20552;-88
2021/07/06 01:49:15;;;;;;;16.63;6.95;;;16.70;92.10;;;;;;4954113;28;20196;-88
2021/07/06 01:51:42;;;;;;;13.00;7.00;;;16.70;92.10;;;;;;4954451;28;20179;-88
2021/07/06 01:54:08;;;;;;;15.32;7.00;;;16.70;92.00;;;;;;4954157;28;20282;-88
2021/07/06 01:56:43;;;;;;;12.52;6.82;;;16.70;92.00;;;;;;4954174;28;20250;-88
2021/07/06 01:59:09;;;;;;;14.27;6.40;;;16.70;92.00;;;;;;4969052;28;20191;-88
2021/07/06 02:01:38;;;;;;;14.95;7.78;;;16.70;91.90;;;;;;4954008;28;20171;-88
2021/07/06 02:04:05;;;;;;;17.52;7.28;;;16.70;92.00;;;;;;4968628;28;20184;-88
2021/07/06 02:06:32;;;;;;;20.17;6.95;;;16.70;91.90;;;;;;4953811;28;20209;-88
2021/07/06 02:08:57;;;;;;;13.02;6.30;;;16.70;91.90;;;;;;4968561;28;20217;-88
2021/07/06 02:11:23;;;;;;;13.32;6.10;;;16.70;91.90;;;;;;4968713;28;20266;-88
2021/07/06 02:13:49;;;;;;;16.42;6.30;;;16.70;91.90;;;;;;4954208;28;20204;-88
2021/07/06 02:16:15;;;;;;;16.23;6.45;;;16.70;91.90;;;;;;4968557;28;20179;-88
2021/07/06 02:18:40;;;;;;;16.45;5.93;;;16.70;91.80;;;;;;4952303;28;20207;-88
2021/07/06 02:21:07;;;;;;;14.45;6.43;;;16.70;91.80;;;;;;4968463;28;20175;-88
2021/07/06 02:23:33;;;;;;;12.75;6.40;;;16.70;91.80;;;;;;4968359;28;20190;-88
2021/07/06 02:26:00;;;;;;;11.75;6.13;;;16.70;91.70;;;;;;4953527;28;20650;-88
2021/07/06 02:28:27;;;;;;;8.65;5.38;;;16.80;91.80;;;;;;4953313;28;20179;-88
2021/07/06 02:30:52;;;;;;;9.13;5.45;;;16.80;91.70;;;;;;4953431;28;20708;-88
2021/07/06 02:33:18;;;;;;;6.05;5.05;;;16.80;91.70;;;;;;4969068;28;20199;-88
2021/07/06 02:35:44;;;;;;;12.63;5.00;;;16.90;91.80;;;;;;4952797;28;20171;-88
2021/07/06 02:38:11;;;;;;;10.32;4.80;;;16.90;91.50;;;;;;4952073;28;20542;-88
2021/07/06 02:40:37;;;;;;;11.60;4.78;;;16.90;91.50;;;;;;4968170;28;20674;-88
2021/07/06 02:43:03;;;;;;;10.55;5.22;;;16.90;91.50;;;;;;4968122;28;20534;-88
2021/07/06 02:45:29;;;;;;;16.17;4.63;;;16.90;91.60;;;;;;4953496;28;20206;-88
2021/07/06 02:47:55;;;;;;;11.52;4.57;;;16.90;91.40;;;;;;4953231;28;20171;-88
2021/07/06 02:50:22;;;;;;;6.82;4.47;;;17.00;91.50;;;;;;4968000;28;20203;-88
2021/07/06 02:52:49;;;;;;;6.78;4.75;;;17.00;91.40;;;;;;4953091;28;20542;-88
2021/07/06 02:55:15;;;;;;;8.43;4.78;;;16.90;91.20;;;;;;4953330;28;20639;-88
2021/07/06 02:57:42;;;;;;;5.57;4.18;;;17.00;91.30;;;;;;4967990;28;20540;-88
2021/07/06 03:00:16;;;;;;;10.82;4.43;;;17.00;91.40;;;;;;4968100;28;20199;-88
2021/07/06 03:02:45;;;;;;;10.52;4.50;;;17.00;91.50;;;;;;4968137;28;20168;-88
2021/07/06 03:05:13;;;;;;;8.63;4.45;;;17.00;91.50;;;;;;4952908;28;20699;-88
2021/07/06 03:07:40;;;;;;;10.00;3.92;;;17.00;91.60;;;;;;4952915;28;20175;-88
2021/07/06 03:10:09;;;;;;;6.75;3.85;;;17.00;91.60;;;;;;4952801;28;20237;-88
2021/07/06 03:12:34;;;;;;;9.43;3.95;;;17.00;91.60;;;;;;4967710;28;20186;-88
2021/07/06 03:15:00;;;;;;;12.32;4.10;;;17.10;91.50;;;;;;4967671;28;20579;-88
2021/07/06 03:17:25;;;;;;;10.57;4.65;;;17.00;91.50;;;;;;4967616;28;20180;-88
2021/07/06 03:19:51;;;;;;;6.07;4.35;;;17.00;91.50;;;;;;4967528;28;20215;-88
2021/07/06 03:22:17;;;;;;;9.15;4.32;;;17.00;91.50;;;;;;4967628;28;20274;-88
2021/07/06 03:24:43;;;;;;;7.45;4.63;;;17.00;91.50;;;;;;4967530;28;20578;-88
2021/07/06 03:27:08;;;;;;;10.55;5.10;;;17.00;91.50;;;;;;4967499;28;20187;-88
2021/07/06 03:29:34;;;;;;;13.07;5.85;;;17.00;91.90;;;;;;4952882;28;20223;-88
2021/07/06 03:32:00;;;;;;;22.63;5.53;;;16.90;92.10;;;;;;4952618;28;20730;-88
2021/07/06 03:34:26;;;;;;;10.07;4.82;;;16.80;92.30;;;;;;4952449;28;20730;-88
2021/07/06 03:36:52;;;;;;;11.20;5.00;;;16.80;92.30;;;;;;4952564;28;20247;-89
2021/07/06 03:39:17;;;;;;;19.40;5.10;;;16.80;92.30;;;;;;4952432;28;20230;-88
2021/07/06 03:41:43;;;;;;;9.57;4.47;;;16.80;92.40;;;;;;4967283;28;20174;-88
2021/07/06 03:44:09;;;;;;;13.52;4.93;;;16.80;92.30;;;;;;4951236;28;20274;-88
2021/07/06 03:46:35;;;;;;;6.80;4.47;;;16.90;92.30;;;;;;4952506;29;20172;-88
2021/07/06 03:49:02;;;;;;;16.58;5.22;;;16.90;92.30;;;;;;4970692;28;20195;-89
2021/07/06 03:51:28;;;;;;;6.28;4.50;;;16.90;92.30;;;;;;4955917;28;20183;-88
2021/07/06 03:53:53;;;;;;;5.22;4.25;;;17.00;92.10;;;;;;4954524;28;20203;-88
2021/07/06 03:56:19;;;;;;;9.30;5.00;;;16.90;92.00;;;;;;4970601;28;20545;-88
2021/07/06 03:58:45;;;;;;;8.02;4.53;;;17.00;92.00;;;;;;4955998;28;20199;-88
2021/07/06 04:01:10;;;;;;;8.52;4.18;;;17.00;91.90;;;;;;4970630;28;20175;-88
2021/07/06 04:03:36;;;;;;;3.88;3.58;;;17.00;91.80;;;;;;4954796;28;20191;-88
2021/07/06 04:06:01;;;;;;;5.63;3.95;;;17.00;91.70;;;;;;4954454;28;20210;-89
2021/07/06 04:08:27;;;;;;;5.53;3.65;;;17.10;91.50;;;;;;4970427;28;20203;-88
2021/07/06 04:10:52;;;;;;;6.07;3.45;;;17.10;91.40;;;;;;4955439;28;20179;-88
2021/07/06 04:13:18;;;;;;;9.73;3.95;;;17.20;91.20;;;;;;4970588;28;20293;-88
2021/07/06 04:15:44;;;;;;;5.93;3.40;;;17.20;91.10;;;;;;4970326;28;20186;-88
2021/07/06 04:18:09;;;;;;;6.72;3.70;;;17.20;91.00;;;;;;4955327;28;20164;-88
2021/07/06 04:20:35;;;;;;;7.93;3.58;;;17.30;91.00;;;;;;4970311;28;20187;-89
2021/07/06 04:23:00;;;;;;;9.15;3.40;;;17.30;91.00;;;;;;4970550;28;20175;-88
2021/07/06 04:25:26;;;;;;;10.18;3.50;;;17.30;90.90;;;;;;4970249;28;20206;-88
2021/07/06 04:27:52;;;;;;;9.52;3.55;;;17.40;90.70;;;;;;4954138;28;20183;-88
2021/07/06 04:30:18;;;;;;;10.25;3.35;;;17.40;90.70;;;;;;4970112;28;20762;-88
2021/07/06 04:32:45;;;;;;;6.88;3.00;;;17.40;90.60;;;;;;4953991;28;20182;-88
2021/07/06 04:35:12;;;;;;;7.25;2.75;;;17.50;90.70;;;;;;4970311;28;20191;-88
2021/07/06 04:37:37;;;;;;;5.32;3.05;;;17.50;90.70;;;;;;4970030;28;20184;-89
2021/07/06 04:40:05;;;;;;;9.30;3.10;;;17.50;90.60;;;;;;4969945;28;20286;-88
2021/07/06 04:42:30;;;;;;;5.43;3.60;;;17.50;90.40;;;;;;4969918;28;20712;-88
2021/07/06 04:44:56;;;;;;;8.40;3.28;;;17.50;90.40;;;;;;4955077;28;20262;-88
2021/07/06 04:47:22;;;;;;;5.60;3.83;;;17.70;90.40;;;;;;4955045;28;20205;-88
2021/07/06 04:49:48;;;;;;;6.55;3.33;;;17.60;90.30;;;;;;4970142;28;20349;-88
2021/07/06 04:52:13;;;;;;;9.57;3.10;;;17.70;90.10;;;;;;4954931;28;20180;-88
2021/07/06 04:54:39;;;;;;;4.35;2.78;;;17.70;90.00;;;;;;4953610;28;20204;-88
2021/07/06 04:57:05;;;;;;;7.80;3.20;;;17.70;89.60;;;;;;4969765;28;20203;-88
2021/07/06 04:59:30;;;;;;;5.03;3.10;;;17.70;89.60;;;;;;4969131;28;20565;-88
2021/07/06 05:01:56;;;;;;;5.07;2.83;;;17.80;89.50;;;;;;4953652;28;20171;-88
2021/07/06 05:04:22;;;;;;;3.63;2.70;;;17.80;89.60;;;;;;4954771;28;20258;-88
2021/07/06 05:06:47;;;;;;;6.38;3.17;;;17.80;89.70;;;;;;4954998;28;20686;-88
2021/07/06 05:09:13;;;;;;;6.90;2.83;;;17.90;89.60;;;;;;4969546;28;20575;-88
2021/07/06 05:11:39;;;;;;;6.05;2.95;;;17.90;89.60;;;;;;4969566;28;20709;-88
2021/07/06 05:14:04;;;;;;;12.32;3.10;;;18.00;89.50;;;;;;4969454;28;20691;-88
2021/07/06 05:16:31;;;;;;;6.93;3.03;;;18.00;89.40;;;;;;4954880;28;20210;-88
2021/07/06 05:18:57;;;;;;;3.58;2.72;;;18.00;89.40;;;;;;4969170;28;20238;-88
2021/07/06 05:21:23;;;;;;;3.10;2.65;;;18.00;89.20;;;;;;4969489;28;20211;-88
2021/07/06 05:23:49;;;;;;;4.93;2.70;;;18.10;89.30;;;;;;4953327;28;20267;-88
2021/07/06 05:26:14;;;;;;;3.83;2.58;;;18.20;89.30;;;;;;4969324;28;20652;-88
2021/07/06 05:28:40;;;;;;;9.05;2.90;;;18.20;89.10;;;;;;4969633;28;20225;-88
2021/07/06 05:31:07;;;;;;;3.10;2.70;;;18.30;88.90;;;;;;4953902;28;20206;-88
2021/07/06 05:33:33;;;;;;;3.47;2.83;;;18.30;88.80;;;;;;4969159;28;20745;-88
2021/07/06 05:35:58;;;;;;;9.35;2.70;;;18.40;88.60;;;;;;4969123;28;20184;-88
2021/07/06 05:38:24;;;;;;;3.70;2.70;;;18.40;88.80;;;;;;4969312;28;20175;-88
2021/07/06 05:40:54;;;;;;;4.15;2.90;;;18.40;88.50;;;;;;4954523;28;20221;-88
2021/07/06 05:43:21;;;;;;;6.03;3.13;;;18.40;88.40;;;;;;4954489;28;20518;-88
2021/07/06 05:45:49;;;;;;;5.13;2.55;;;18.50;88.60;;;;;;4954211;28;20180;-88
2021/07/06 05:48:16;;;;;;;3.45;2.40;;;18.40;88.30;;;;;;4952827;28;20179;-87
2021/07/06 05:50:42;;;;;;;3.72;2.60;;;18.40;88.40;;;;;;4952947;28;20180;-87
2021/07/06 05:53:08;;;;;;;3.55;2.83;;;18.50;88.60;;;;;;4968767;28;20194;-88
2021/07/06 05:55:34;;;;;;;6.43;2.47;;;18.50;88.60;;;;;;4953986;28;20168;-88
2021/07/06 05:57:59;;;;;;;3.03;2.70;;;18.50;88.60;;;;;;4952785;28;20186;-88
2021/07/06 06:00:25;;;;;;;6.63;2.78;;;18.50;88.30;;;;;;4952729;28;20191;-88
2021/07/06 06:02:51;;;;;;;4.35;2.28;;;18.60;88.70;;;;;;4953879;28;20596;-88
2021/07/06 06:05:16;;;;;;;4.40;2.47;;;18.70;88.70;;;;;;4968696;28;20175;-88
2021/07/06 06:07:43;;;;;;;3.65;2.40;;;18.80;88.50;;;;;;4953856;28;20170;-88
2021/07/06 06:10:11;;;;;;;3.40;2.30;;;18.90;88.60;;;;;;4967691;28;20320;-88
2021/07/06 06:12:38;;;;;;;4.60;2.35;;;19.00;87.90;;;;;;4952495;28;20297;-88
2021/07/06 06:15:05;;;;;;;7.78;2.53;;;19.00;87.90;;;;;;4953649;28;20211;-88
2021/07/06 06:17:31;;;;;;;3.28;2.40;;;19.10;87.70;;;;;;4968621;28;20295;-88
2021/07/06 06:19:57;;;;;;;10.98;2.50;;;19.20;87.90;;;;;;4953653;28;20306;-88
2021/07/06 06:22:23;;;;;;;2.72;2.30;;;19.20;87.80;;;;;;4968633;28;20183;-88
2021/07/06 06:24:48;;;;;;;4.72;2.20;;;19.20;87.80;;;;;;4968470;28;20179;-89
2021/07/06 06:27:15;;;;;;;3.53;2.40;;;19.20;87.30;;;;;;4953622;28;20285;-89
2021/07/06 06:29:41;;;;;;;2.67;1.95;;;19.20;87.30;;;;;;4953417;28;20226;-89
2021/07/06 06:32:07;;;;;;;3.90;2.17;;;19.20;87.20;;;;;;4953522;28;20204;-89
2021/07/06 06:34:33;;;;;;;2.83;2.15;;;19.20;86.80;;;;;;4953367;28;20637;-89
2021/07/06 06:36:58;;;;;;;2.67;1.88;;;19.30;87.50;;;;;;4968604;28;20179;-89
2021/07/06 06:39:24;;;;;;;2.00;1.80;;;19.40;87.10;;;;;;4953352;28;20183;-89
2021/07/06 06:41:50;;;;;;;3.47;1.95;;;19.50;86.60;;;;;;4952184;28;20182;-89
2021/07/06 06:44:17;;;;;;;5.57;2.58;;;19.40;86.30;;;;;;4968376;28;20179;-89
2021/07/06 06:46:43;;;;;;;3.30;2.17;;;19.50;86.30;;;;;;4968560;28;20179;-89
2021/07/06 06:49:09;;;;;;;2.80;1.70;;;19.50;86.10;;;;;;4968130;28;20329;-89
2021/07/06 06:51:35;;;;;;;5.70;2.00;;;19.50;85.90;;;;;;4968610;28;20658;-89
2021/07/06 06:54:01;;;;;;;2.20;1.98;;;19.70;85.60;;;;;;4968108;28;20245;-89
2021/07/06 06:56:28;;;;;;;1.88;1.58;;;19.80;85.20;;;;;;4967930;28;20271;-89
2021/07/06 06:58:54;;;;;;;4.22;2.13;;;19.80;85.10;;;;;;4968286;28;20191;-89
2021/07/06 07:01:20;;;;;;;2.33;1.73;;;19.90;85.50;;;;;;4953141;28;20199;-88
2021/07/06 07:03:46;;;;;;;7.15;1.98;;;20.00;84.20;;;;;;4951860;28;20186;-89
2021/07/06 07:06:12;;;;;;;1.58;1.48;;;20.00;84.80;;;;;;4967840;28;20183;-89
2021/07/06 07:08:37;;;;;;;1.77;1.65;;;20.10;84.10;;;;;;4951807;28;20200;-89
2021/07/06 07:11:03;;;;;;;3.42;1.75;;;20.10;84.50;;;;;;4967780;28;20179;-89
2021/07/06 07:13:28;;;;;;;6.65;1.70;;;20.20;84.70;;;;;;4967634;28;20686;-89
2021/07/06 07:15:54;;;;;;;3.88;1.70;;;20.40;83.60;;;;;;4967748;28;20179;-89
2021/07/06 07:18:20;;;;;;;2.78;1.60;;;20.60;83.60;;;;;;4952574;28;20221;-89
2021/07/06 07:20:46;;;;;;;5.47;1.48;;;20.60;82.10;;;;;;4952655;28;20182;-89
2021/07/06 07:23:11;;;;;;;6.35;1.52;;;20.80;81.00;;;;;;4952757;28;20179;-89
2021/07/06 07:25:37;;;;;;;1.58;1.27;;;20.80;81.40;;;;;;4952709;28;20179;-88
2021/07/06 07:28:05;;;;;;;2.33;1.20;;;20.80;80.70;;;;;;4952779;28;20178;-89
2021/07/06 07:30:31;;;;;;;6.18;1.58;;;20.90;81.40;;;;;;4967851;28;20666;-88
2021/07/06 07:32:56;;;;;;;6.03;1.50;;;21.10;80.30;;;;;;4951472;28;20186;-89
2021/07/06 07:35:22;;;;;;;1.52;1.30;;;21.30;80.40;;;;;;4967672;28;20612;-89
2021/07/06 07:37:48;;;;;;;2.28;1.27;;;21.40;80.30;;;;;;4952667;28;20547;-89
2021/07/06 07:40:16;;;;;;;1.23;1.13;;;21.40;79.90;;;;;;4951468;28;20199;-89
2021/07/06 07:42:42;;;;;;;2.53;1.42;;;21.40;79.60;;;;;;4952792;28;20220;-89
2021/07/06 07:45:09;;;;;;;3.05;1.35;;;21.60;79.30;;;;;;4952523;29;20175;-89
2021/07/06 07:47:35;;;;;;;4.20;1.20;;;21.60;79.70;;;;;;4967456;28;20180;-89
2021/07/06 07:50:04;;;;;;;2.53;1.40;;;21.70;78.60;;;;;;4951243;28;20667;-89
2021/07/06 07:52:32;;;;;;;4.30;1.33;;;21.70;77.00;;;;;;4967315;28;20183;-89
2021/07/06 07:54:58;;;;;;;1.27;1.17;;;21.50;76.70;;;;;;4952415;28;20206;-89
2021/07/06 07:57:23;;;;;;;5.00;1.42;;;21.60;77.10;;;;;;4967444;28;20179;-89
2021/07/06 07:59:50;;;;;;;2.13;1.00;;;21.80;78.70;;;;;;4952502;28;20725;-89
2021/07/06 08:02:16;;;;;;;1.40;1.30;;;21.90;78.40;;;;;;4967415;28;20180;-89
2021/07/06 08:04:42;;;;;;;1.23;1.13;;;22.20;77.80;;;;;;4967243;28;20229;-89
2021/07/06 08:07:07;;;;;;;2.25;1.20;;;22.30;77.00;;;;;;4952194;28;20216;-89
2021/07/06 08:09:33;;;;;;;3.83;1.17;;;22.30;77.00;;;;;;4952210;28;20199;-89
2021/07/06 08:11:59;;;;;;;3.83;1.15;;;22.30;74.00;;;;;;4951266;28;20662;-89
2021/07/06 08:14:24;;;;;;;3.63;1.27;;;22.30;75.90;;;;;;4967010;28;20203;-89
2021/07/06 08:16:52;;;;;;;11.63;1.58;;;22.50;75.80;;;;;;4952304;28;20178;-89
2021/07/06 08:19:18;;;;;;;1.90;1.10;;;22.50;75.70;;;;;;4951898;28;20297;-89
2021/07/06 08:21:43;;;;;;;0.80;0.80;;;22.70;74.50;;;;;;4966986;28;20603;-89
2021/07/06 08:24:09;;;;;;;2.38;1.02;;;22.80;74.10;;;;;;4952122;28;20643;-89
2021/07/06 08:26:36;;;;;;;3.22;1.00;;;22.80;74.60;;;;;;4966926;28;20559;-89
2021/07/06 08:29:03;;;;;;;2.95;0.93;;;22.70;73.70;;;;;;4951982;28;20196;-89
2021/07/06 08:31:29;;;;;;;1.00;0.90;;;22.60;73.40;;;;;;4950847;28;20659;-89
2021/07/06 08:33:54;;;;;;;1.38;1.10;;;22.80;72.80;;;;;;4952845;28;20214;-89
2021/07/06 08:36:20;;;;;;;4.10;1.13;;;22.80;73.10;;;;;;4970360;28;20175;-90
2021/07/06 08:38:46;;;;;;;4.18;1.20;;;22.80;73.80;;;;;;4970354;28;20218;-89
2021/07/06 08:41:13;;;;;;;5.00;1.00;;;22.80;73.20;;;;;;4954071;28;20179;-90
2021/07/06 08:43:38;;;;;;;5.40;1.58;;;22.80;74.00;;;;;;4970180;28;20237;-89
2021/07/06 08:46:04;;;;;;;10.52;2.05;;;22.70;75.40;;;;;;4969929;28;20187;-90
2021/07/06 08:48:35;;;;;;;4.28;1.38;;;22.40;77.00;;;;;;4955070;28;20245;-90
2021/07/06 08:51:04;;;;;;;5.75;1.38;;;22.20;78.30;;;;;;4970537;28;20273;-90
2021/07/06 08:53:30;;;;;;;2.33;1.42;;;21.60;80.30;;;;;;4970204;28;20207;-90
2021/07/06 08:55:58;;;;;;;3.65;1.13;;;21.20;80.50;;;;;;4955267;28;20179;-90
2021/07/06 08:58:24;;;;;;;5.05;1.33;;;21.10;81.70;;;;;;4969881;28;20172;-90
2021/07/06 09:00:50;;;;;;;1.33;1.10;;;21.10;83.00;;;;;;4969760;28;20186;-90
2021/07/06 09:03:15;;;;;;;3.75;1.60;;;21.10;83.00;;;;;;4955071;28;20640;-90
2021/07/06 09:05:41;;;;;;;3.75;1.70;;;21.20;83.50;;;;;;4970055;28;20171;-89
2021/07/06 09:08:08;;;;;;;4.93;1.75;;;21.30;84.00;;;;;;4970595;28;20230;-90
2021/07/06 09:10:39;;;;;;;3.50;1.50;;;21.50;83.30;;;;;;4970324;28;20282;-90
2021/07/06 09:13:33;;;;;;;2.67;1.88;;;21.70;83.60;;;;;;4969736;28;20180;-89
2021/07/06 09:15:58;;;;;;;2.70;1.77;;;21.90;83.10;;;;;;4971170;28;20211;-90
2021/07/06 09:18:32;;;;;;;1.52;1.42;;;22.00;82.70;;;;;;4970442;28;20214;-90
2021/07/06 09:21:18;;;;;;;1.90;1.60;;;22.10;82.10;;;;;;4970044;28;20215;-90
2021/07/06 09:23:54;;;;;;;2.00;1.55;;;22.30;81.90;;;;;;4953422;28;20183;-90
2021/07/06 09:26:22;;;;;;;5.05;1.60;;;22.30;82.00;;;;;;4955227;28;20162;-88
2021/07/06 09:28:49;;;;;;;2.97;1.90;;;22.40;81.80;;;;;;4954914;28;20203;-89
2021/07/06 09:31:21;;;;;;;6.10;1.70;;;22.50;80.80;;;;;;4954108;28;20719;-89
2021/07/06 09:34:08;;;;;;;5.20;2.00;;;22.70;81.90;;;;;;4955265;28;20215;-89
2021/07/06 09:36:35;;;;;;;6.10;1.48;;;22.70;81.30;;;;;;4954859;28;20172;-89
2021/07/06 09:39:07;;;;;;;3.17;1.50;;;22.80;80.60;;;;;;4969666;28;20200;-89
2021/07/06 09:41:34;;;;;;;4.70;1.50;;;23.10;81.80;;;;;;4953555;28;20612;-89
2021/07/06 09:44:20;;;;;;;2.72;1.50;;;23.20;80.00;;;;;;4954425;28;20186;-89
2021/07/06 09:46:57;;;;;;;3.28;1.35;;;23.50;78.80;;;;;;4954473;28;20171;-89
2021/07/06 09:49:26;;;;;;;1.33;1.23;;;23.70;78.70;;;;;;4954508;28;20192;-89
2021/07/06 09:51:52;;;;;;;3.42;1.60;;;23.80;78.00;;;;;;4954349;28;20172;-89
2021/07/06 09:54:33;;;;;;;4.50;1.33;;;23.90;76.70;;;;;;4969376;28;20280;-90
2021/07/06 09:57:27;;;;;;;4.25;1.25;;;24.10;75.20;;;;;;4969435;28;20168;-88
2021/07/06 10:00:08;;;;;;;3.20;1.40;;;24.20;75.40;;;;;;4955815;28;20290;-86
2021/07/06 10:02:35;;;;;;;7.55;1.30;;;24.20;74.90;;;;;;4953773;28;20175;-86
2021/07/06 10:05:04;;;;;;;2.67;1.20;;;23.90;74.50;;;;;;4968725;28;20651;-86
2021/07/06 10:07:31;;;;;;;3.25;1.27;;;23.80;73.30;;;;;;4953874;28;20182;-87
2021/07/06 10:09:57;;;;;;;3.75;1.40;;;23.80;73.50;;;;;;4953752;28;20192;-87
2021/07/06 10:12:24;;;;;;;3.65;1.33;;;23.70;73.80;;;;;;4953786;28;20176;-87
2021/07/06 10:14:52;;;;;;;2.55;1.95;;;23.70;73.50;;;;;;4968659;28;20214;-87
2021/07/06 10:17:18;;;;;;;2.30;1.35;;;23.60;73.20;;;;;;4968994;28;20180;-87
2021/07/06 10:19:45;;;;;;;3.58;1.35;;;23.60;72.90;;;;;;4968635;28;20646;-88
2021/07/06 10:22:13;;;;;;;2.53;1.67;;;23.60;72.80;;;;;;4968567;28;20176;-88
2021/07/06 10:24:41;;;;;;;5.28;1.95;;;23.50;73.50;;;;;;4968637;28;20179;-88
2021/07/06 10:27:12;;;;;;;4.28;1.38;;;23.40;72.70;;;;;;4952696;28;20211;-88
2021/07/06 10:29:41;;;;;;;4.15;1.50;;;23.30;72.00;;;;;;4953943;28;20201;-87
2021/07/06 10:32:07;;;;;;;3.00;1.38;;;23.20;72.20;;;;;;4952279;28;20215;-87
2021/07/06 10:34:43;;;;;;;4.30;1.38;;;23.20;72.80;;;;;;4952810;28;20294;-88
2021/07/06 10:37:30;;;;;;;1.85;1.58;;;23.20;73.60;;;;;;4953607;28;20160;-88
2021/07/06 10:40:20;;;;;;;4.97;1.67;;;23.20;72.80;;;;;;4954165;28;20203;-89
2021/07/06 10:42:49;;;;;;;4.28;1.80;;;23.30;70.70;;;;;;4968787;28;20171;-89
2021/07/06 10:45:19;;;;;;;3.25;2.33;;;23.20;71.90;;;;;;4968586;28;20739;-89
2021/07/06 10:47:51;;;;;;;2.75;1.65;;;23.20;72.70;;;;;;4953868;28;20670;-88
2021/07/06 10:50:32;;;;;;;5.03;1.48;;;23.10;72.60;;;;;;4968794;28;20577;-89
2021/07/06 10:53:15;;;;;;;1.98;1.33;;;23.00;71.30;;;;;;4953963;28;20211;-88
2021/07/06 10:55:43;;;;;;;1.63;1.25;;;22.90;72.90;;;;;;4953101;28;20567;-89
2021/07/06 10:58:10;;;;;;;3.65;1.48;;;22.80;72.90;;;;;;4954023;28;20172;-89
2021/07/06 11:00:44;;;;;;;2.72;1.30;;;22.70;73.80;;;;;;4954155;28;20286;-89
2021/07/06 11:03:17;;;;;;;4.82;1.50;;;22.60;74.40;;;;;;4954251;28;20190;-88
2021/07/06 11:05:45;;;;;;;5.50;1.67;;;22.60;75.20;;;;;;4952435;29;20164;-89
2021/07/06 11:08:40;;;;;;;1.92;1.70;;;22.60;75.60;;;;;;4953688;28;20538;-88
2021/07/06 11:11:07;;;;;;;4.32;1.80;;;22.60;75.30;;;;;;4952838;28;20195;-88
2021/07/06 11:13:33;;;;;;;1.55;1.35;;;22.60;75.70;;;;;;4969176;28;20596;-89
2021/07/06 11:16:03;;;;;;;3.90;1.25;;;22.60;75.60;;;;;;4968442;28;20176;-89
2021/07/06 11:18:41;;;;;;;3.13;1.48;;;22.50;75.40;;;;;;4968039;28;20187;-90
2021/07/06 11:21:31;;;;;;;4.28;1.48;;;22.50;75.80;;;;;;4968265;28;20179;-89
2021/07/06 11:24:14;;;;;;;4.45;1.48;;;22.40;75.90;;;;;;4968189;28;20629;-90
2021/07/06 11:27:09;;;;;;;10.23;1.50;;;22.40;76.00;;;;;;4968345;28;20229;-89
2021/07/06 11:29:39;;;;;;;2.70;1.40;;;22.40;76.00;;;;;;4969142;28;20215;-90
2021/07/06 11:32:16;;;;;;;1.55;1.40;;;22.30;76.50;;;;;;4965376;28;20202;-89
2021/07/06 11:34:43;;;;;;;3.88;1.70;;;22.20;75.70;;;;;;4967447;28;20195;-89
2021/07/06 11:37:18;;;;;;;2.47;1.15;;;22.20;76.20;;;;;;4967619;28;20186;-89
2021/07/06 11:39:48;;;;;;;3.58;1.50;;;22.20;75.80;;;;;;4967510;28;20244;-89
2021/07/06 11:42:14;;;;;;;5.75;2.00;;;22.20;76.10;;;;;;4967526;28;20180;-90
2021/07/06 11:44:45;;;;;;;4.00;1.52;;;22.20;75.30;;;;;;4967463;28;20557;-89
2021/07/06 11:47:12;;;;;;;1.35;1.20;;;22.20;75.30;;;;;;4967599;28;20171;-89
2021/07/06 11:49:39;;;;;;;3.92;1.20;;;22.20;74.80;;;;;;4967342;28;20221;-89
2021/07/06 11:52:05;;;;;;;6.82;1.40;;;22.10;75.40;;;;;;4967487;28;20259;-89
2021/07/06 11:54:31;;;;;;;6.38;1.58;;;22.10;74.60;;;;;;4967574;28;20215;-89
2021/07/06 11:57:09;;;;;;;2.78;1.48;;;22.10;75.30;;;;;;4952470;28;20163;-89
2021/07/06 11:59:36;;;;;;;4.25;1.65;;;22.10;75.40;;;;;;4952321;28;20651;-89
2021/07/06 12:02:12;;;;;;;2.17;1.42;;;22.00;77.20;;;;;;4968219;28;20184;-89
2021/07/06 12:04:38;;;;;;;4.25;1.80;;;22.00;76.90;;;;;;4967154;28;20242;-89
2021/07/06 12:07:08;;;;;;;4.00;1.45;;;22.00;77.50;;;;;;4968219;28;20179;-89
2021/07/06 12:09:37;;;;;;;3.20;1.55;;;22.00;77.00;;;;;;4970266;28;20222;-90
2021/07/06 12:12:15;;;;;;;6.57;1.75;;;22.10;77.20;;;;;;4955077;28;20655;-90
2021/07/06 12:14:48;;;;;;;5.68;1.10;;;22.00;75.60;;;;;;4956048;28;20206;-89
2021/07/06 12:17:47;;;;;;;3.92;1.23;;;22.10;75.00;;;;;;4955552;28;20152;-89
2021/07/06 12:20:16;;;;;;;5.35;1.65;;;22.00;75.40;;;;;;4978480;28;20584;-89
2021/07/06 12:22:42;;;;;;;1.55;1.20;;;22.00;75.60;;;;;;4954543;28;20670;-88
2021/07/06 12:25:09;;;;;;;5.50;1.42;;;21.90;76.10;;;;;;4955661;28;20194;-89
2021/07/06 12:27:35;;;;;;;4.40;1.30;;;21.80;75.90;;;;;;4955417;28;20203;-89
2021/07/06 12:30:02;;;;;;;4.55;1.15;;;21.80;76.30;;;;;;4955420;28;20264;-89
2021/07/06 12:32:28;;;;;;;4.00;1.35;;;21.80;75.50;;;;;;4970199;28;20188;-89
2021/07/06 12:34:58;;;;;;;2.60;0.75;;;21.80;75.40;;;;;;4953941;28;20260;-88
2021/07/06 12:37:28;;;;;;;4.15;1.30;;;21.70;74.40;;;;;;4955351;28;20167;-88
2021/07/06 12:40:07;;;;;;;1.95;1.23;;;21.70;76.10;;;;;;4970126;28;20191;-89
2021/07/06 12:42:42;;;;;;;3.67;1.20;;;21.70;75.20;;;;;;4970019;28;20179;-89
2021/07/06 12:45:12;;;;;;;3.58;1.20;;;21.70;75.20;;;;;;4969963;28;20693;-89
2021/07/06 12:47:42;;;;;;;1.08;1.08;;;21.80;74.40;;;;;;4969992;28;20177;-89